Springstead, Wisconsin
Current Conditions -  °F | °C
As of 1:35 AM on Thursday 23 Oct 2014 (Local Time) from KPBH Reporting Station
Overcast Overcast  
Wind Chill: 43°   Ceiling: 3500
Heat Index: 47°   Visibility: 10mi
Dew Point: 36°   Wind: 8mph
Humidity: 65%   Direction: 170°S
Pressure: 30.1"   Gusts: NA
Location:  45.9599°N, 90.2362°W
Report Text: KPBH 230635Z AUTO 17007KT 10SM OVC035 09/02 A3010 RMK AO2 T00850023
Loading
Personal Weather Stations






























Interactive Weather Map
Tropical Storm Tracking
New forecast layout! Learn more

10-Day Weather Forecast

Advertisements
Track Severe Weather on mobile